createdAt,value
2018-05-09T00:02:18.817Z,6.07
2018-05-09T00:04:52.683Z,6.47
2018-05-09T00:07:27.784Z,7.73
2018-05-09T00:10:01.514Z,7.03
2018-05-09T00:12:35.155Z,8.63
2018-05-09T00:15:09.843Z,6.83
2018-05-09T00:17:43.693Z,7.30
2018-05-09T00:20:17.368Z,8.07
2018-05-09T00:22:51.088Z,6.23
2018-05-09T00:25:24.888Z,6.03
2018-05-09T00:27:58.720Z,5.63
2018-05-09T00:30:32.580Z,7.40
2018-05-09T00:33:06.406Z,6.37
2018-05-09T00:35:40.135Z,8.97
2018-05-09T00:38:14.039Z,7.17
2018-05-09T00:40:48.050Z,6.97
2018-05-09T00:43:21.684Z,9.03
2018-05-09T00:45:55.501Z,7.80
2018-05-09T00:48:29.328Z,12.67
2018-05-09T00:51:03.261Z,6.63
2018-05-09T00:53:37.268Z,7.77
2018-05-09T00:56:10.916Z,7.27
2018-05-09T00:58:44.698Z,6.93
2018-05-09T01:01:19.143Z,6.93
2018-05-09T01:03:52.934Z,8.60
2018-05-09T01:06:26.736Z,8.13
2018-05-09T01:09:01.461Z,10.30
2018-05-09T01:11:35.388Z,8.37
2018-05-09T01:14:09.287Z,7.33
2018-05-09T01:16:43.924Z,7.33
2018-05-09T01:19:17.728Z,8.83
2018-05-09T01:21:51.551Z,9.97
2018-05-09T01:24:26.329Z,7.33
2018-05-09T01:27:00.023Z,9.17
2018-05-09T01:29:33.733Z,12.17
2018-05-09T01:32:07.595Z,8.47
2018-05-09T01:34:42.343Z,9.83
2018-05-09T01:37:16.009Z,8.87
2018-05-09T01:39:49.828Z,10.13
2018-05-09T01:42:24.506Z,7.80
2018-05-09T01:44:58.234Z,8.80
2018-05-09T01:47:32.021Z,12.90
2018-05-09T01:50:05.923Z,11.83
2018-05-09T01:52:40.451Z,8.20
2018-05-09T01:55:14.246Z,10.03
2018-05-09T01:57:48.990Z,8.73
2018-05-09T02:00:22.880Z,12.10
2018-05-09T02:02:56.589Z,12.90
2018-05-09T02:05:30.425Z,12.40
2018-05-09T02:08:04.113Z,10.10
2018-05-09T02:10:37.813Z,8.60
2018-05-09T02:13:11.632Z,9.53
2018-05-09T02:15:45.524Z,10.17
2018-05-09T02:18:19.374Z,10.80
2018-05-09T02:20:53.220Z,8.60
2018-05-09T02:23:27.849Z,12.30
2018-05-09T02:26:02.383Z,11.73
2018-05-09T02:28:36.178Z,8.87
2018-05-09T02:31:10.078Z,10.93
2018-05-09T02:33:44.608Z,11.27
2018-05-09T02:36:18.252Z,11.07
2018-05-09T02:38:52.098Z,9.50
2018-05-09T02:41:26.008Z,8.83
2018-05-09T02:44:00.480Z,9.40
2018-05-09T02:46:34.357Z,9.37
2018-05-09T02:49:08.263Z,10.93
2018-05-09T02:51:42.726Z,7.57
2018-05-09T02:54:16.479Z,10.43
2018-05-09T02:56:50.273Z,11.60
2018-05-09T02:59:24.004Z,9.93
2018-05-09T03:01:58.667Z,10.27
2018-05-09T03:04:32.615Z,9.50
2018-05-09T03:07:06.442Z,8.90
2018-05-09T03:09:40.238Z,8.63
2018-05-09T03:12:14.142Z,9.83
2018-05-09T03:14:47.902Z,9.93
2018-05-09T03:17:21.546Z,9.47
2018-05-09T03:19:55.442Z,8.57
2018-05-09T03:22:29.085Z,10.27
2018-05-09T03:25:02.934Z,11.00
2018-05-09T03:27:37.620Z,11.50
2018-05-09T03:30:11.334Z,10.97
2018-05-09T03:32:45.005Z,10.27
2018-05-09T03:35:18.764Z,12.27
2018-05-09T03:37:52.621Z,12.00
2018-05-09T03:40:26.440Z,10.77
2018-05-09T03:43:01.172Z,11.30
2018-05-09T03:45:34.939Z,10.87
2018-05-09T03:48:09.691Z,11.73
2018-05-09T03:50:43.527Z,9.90
2018-05-09T03:53:17.388Z,9.07
2018-05-09T03:55:51.060Z,10.73
2018-05-09T03:58:24.893Z,16.80
2018-05-09T04:00:58.844Z,12.20
2018-05-09T04:03:45.046Z,11.10
2018-05-09T04:06:30.936Z,14.57
2018-05-09T04:09:17.467Z,11.77
2018-05-09T04:11:51.176Z,13.77
2018-05-09T04:14:25.708Z,17.60
2018-05-09T04:16:59.480Z,13.80
2018-05-09T04:19:33.366Z,11.23
2018-05-09T04:22:07.814Z,14.77
2018-05-09T04:24:41.657Z,13.33
2018-05-09T04:27:15.348Z,11.20
2018-05-09T04:29:50.016Z,11.57
2018-05-09T04:32:23.776Z,12.43
2018-05-09T04:34:58.190Z,10.90
2018-05-09T04:37:31.977Z,12.40
2018-05-09T04:40:06.649Z,15.40
2018-05-09T04:42:41.112Z,13.37
2018-05-09T04:45:16.024Z,11.73
2018-05-09T04:47:49.722Z,12.37
2018-05-09T04:50:23.573Z,12.17
2018-05-09T04:52:57.399Z,11.47
2018-05-09T04:55:32.045Z,12.33
2018-05-09T04:58:05.711Z,13.77
2018-05-09T05:00:39.613Z,13.80
2018-05-09T05:03:13.496Z,13.03
2018-05-09T05:05:47.280Z,12.50
2018-05-09T05:08:20.903Z,13.87
2018-05-09T05:10:55.093Z,11.90
2018-05-09T05:13:28.952Z,12.20
2018-05-09T05:16:04.857Z,11.83
2018-05-09T05:18:39.387Z,13.50
2018-05-09T05:21:13.433Z,15.37
2018-05-09T05:23:47.296Z,11.20
2018-05-09T05:26:21.292Z,11.60
2018-05-09T05:28:55.776Z,12.13
2018-05-09T05:31:29.520Z,11.70
2018-05-09T05:34:03.712Z,9.47
2018-05-09T05:36:37.730Z,10.63
2018-05-09T05:39:12.695Z,16.47
2018-05-09T05:41:46.553Z,13.93
2018-05-09T05:44:20.384Z,14.97
2018-05-09T05:46:55.001Z,13.17
2018-05-09T05:49:29.458Z,9.87
2018-05-09T05:52:03.438Z,15.43
2018-05-09T05:54:37.294Z,12.33
2018-05-09T05:57:11.181Z,11.97
2018-05-09T05:59:45.848Z,12.43
2018-05-09T06:02:19.636Z,10.97
2018-05-09T06:04:53.463Z,16.00
2018-05-09T06:07:27.172Z,11.73
2018-05-09T06:10:00.939Z,14.30
2018-05-09T06:12:34.691Z,13.07
2018-05-09T06:15:08.401Z,13.57
2018-05-09T06:17:42.960Z,14.37
2018-05-09T06:20:16.901Z,18.23
2018-05-09T06:22:50.657Z,15.90
2018-05-09T06:25:24.658Z,17.67
2018-05-09T06:27:58.471Z,12.93
2018-05-09T06:30:32.317Z,18.77
2018-05-09T06:33:06.123Z,14.40
2018-05-09T06:35:40.057Z,15.50
2018-05-09T06:38:15.034Z,19.33
2018-05-09T06:40:48.868Z,20.40
2018-05-09T06:43:23.019Z,20.50
2018-05-09T06:45:56.935Z,17.87
2018-05-09T06:48:30.904Z,19.57
2018-05-09T06:51:05.480Z,20.27
2018-05-09T06:53:40.097Z,20.30
2018-05-09T06:56:13.856Z,18.83
2018-05-09T06:58:47.723Z,17.73
2018-05-09T07:01:22.235Z,17.63
2018-05-09T07:03:55.934Z,17.80
2018-05-09T07:06:29.852Z,16.47
2018-05-09T07:09:05.285Z,17.13
2018-05-09T07:11:39.120Z,16.53
2018-05-09T07:14:12.852Z,16.57
2018-05-09T07:16:41.072Z,18.00
2018-05-09T07:19:09.324Z,22.27
2018-05-09T07:21:38.366Z,22.00
2018-05-09T07:24:07.493Z,15.80
2018-05-09T07:26:35.676Z,16.37
2018-05-09T07:29:03.884Z,19.13
2018-05-09T07:31:32.057Z,19.40
2018-05-09T07:34:00.239Z,22.70
2018-05-09T07:36:28.472Z,17.63
2018-05-09T07:38:56.658Z,18.53
2018-05-09T07:41:24.971Z,21.00
2018-05-09T07:43:53.927Z,14.53
2018-05-09T07:46:22.718Z,21.97
2018-05-09T07:48:51.081Z,17.53
2018-05-09T07:51:19.290Z,11.40
2018-05-09T07:53:47.470Z,14.70
2018-05-09T07:56:16.434Z,16.40
2018-05-09T07:58:44.627Z,14.27
2018-05-09T08:01:13.620Z,10.77
2018-05-09T08:03:41.909Z,11.97
2018-05-09T08:06:10.856Z,15.30
2018-05-09T08:08:39.032Z,12.23
2018-05-09T08:11:07.229Z,9.77
2018-05-09T08:13:35.795Z,9.80
2018-05-09T08:16:04.013Z,11.73
2018-05-09T08:18:32.225Z,12.60
2018-05-09T08:21:00.411Z,13.13
2018-05-09T08:23:28.627Z,14.93
2018-05-09T08:25:57.647Z,15.70
2018-05-09T08:28:25.837Z,18.03
2018-05-09T08:30:54.049Z,16.57
2018-05-09T08:33:23.007Z,16.07
2018-05-09T08:35:51.220Z,14.27
2018-05-09T08:38:20.203Z,12.97
2018-05-09T08:40:48.455Z,9.40
2018-05-09T08:43:16.831Z,8.87
2018-05-09T08:45:45.119Z,8.13
2018-05-09T08:48:13.301Z,9.40
2018-05-09T08:50:41.522Z,15.30
2018-05-09T08:53:10.372Z,9.23
2018-05-09T08:55:38.591Z,9.13
2018-05-09T08:58:06.773Z,7.60
2018-05-09T09:00:38.578Z,5.20
2018-05-09T09:03:06.967Z,15.47
2018-05-09T09:05:35.911Z,21.13
2018-05-09T09:08:04.129Z,18.13
2018-05-09T09:10:32.425Z,22.13
2018-05-09T09:13:01.379Z,19.00
2018-05-09T09:15:30.465Z,22.30
2018-05-09T09:17:59.035Z,20.20
2018-05-09T09:20:27.337Z,17.37
2018-05-09T09:22:56.359Z,21.40
2018-05-09T09:25:24.896Z,22.57
2018-05-09T09:27:53.321Z,18.70
2018-05-09T09:30:21.784Z,20.77
2018-05-09T09:32:50.162Z,16.90
2018-05-09T09:35:19.391Z,16.33
2018-05-09T09:37:47.649Z,16.03
2018-05-09T09:40:15.847Z,14.60
2018-05-09T09:42:44.213Z,17.37
2018-05-09T09:45:12.433Z,16.17
2018-05-09T09:47:41.428Z,18.07
2018-05-09T09:50:09.955Z,20.60
2018-05-09T09:52:38.899Z,18.83
2018-05-09T09:55:07.935Z,20.53
2018-05-09T09:57:36.864Z,25.02
2018-05-09T10:00:05.232Z,23.50
2018-05-09T10:02:33.899Z,21.63
2018-05-09T10:05:03.459Z,22.17
2018-05-09T10:07:32.468Z,23.77
2018-05-09T10:10:00.699Z,24.27
2018-05-09T10:12:33.537Z,23.53
2018-05-09T10:15:02.599Z,26.43
2018-05-09T10:17:31.995Z,28.67
2018-05-09T10:20:00.214Z,22.43
2018-05-09T10:22:36.995Z,22.70
2018-05-09T10:25:10.112Z,25.50
2018-05-09T10:27:41.336Z,20.33
2018-05-09T10:30:10.355Z,18.70
2018-05-09T10:32:40.361Z,21.57
2018-05-09T10:35:12.746Z,22.10
2018-05-09T10:37:41.927Z,24.13
2018-05-09T10:40:10.783Z,21.93
2018-05-09T10:42:39.317Z,20.57
2018-05-09T10:45:07.621Z,21.63
2018-05-09T10:47:36.173Z,27.20
2018-05-09T10:50:05.124Z,25.47
2018-05-09T10:52:33.380Z,21.60
2018-05-09T10:55:01.663Z,20.90
2018-05-09T10:57:29.928Z,20.43
2018-05-09T10:59:58.773Z,19.70
2018-05-09T11:02:27.762Z,24.97
2018-05-09T11:04:56.772Z,22.87
2018-05-09T11:07:25.029Z,17.23
2018-05-09T11:09:53.676Z,16.73
2018-05-09T11:12:21.898Z,24.40
2018-05-09T11:14:50.969Z,20.40
2018-05-09T11:17:19.349Z,21.73
2018-05-09T11:19:47.889Z,16.97
2018-05-09T11:22:16.112Z,21.37
2018-05-09T11:24:44.435Z,25.57
2018-05-09T11:27:13.702Z,20.37
2018-05-09T11:29:42.689Z,20.67
2018-05-09T11:32:11.678Z,18.30
2018-05-09T11:34:41.025Z,21.13
2018-05-09T11:37:09.271Z,13.90
2018-05-09T11:39:38.204Z,19.07
2018-05-09T11:42:06.396Z,17.17
2018-05-09T11:44:35.369Z,15.47
2018-05-09T11:47:03.657Z,15.40
2018-05-09T11:49:31.932Z,17.03
2018-05-09T11:52:00.123Z,16.47
2018-05-09T11:54:28.666Z,17.70
2018-05-09T11:56:56.865Z,15.03
2018-05-09T11:59:26.151Z,13.70
2018-05-09T12:01:54.361Z,16.30
2018-05-09T12:04:23.340Z,17.43
2018-05-09T12:06:52.407Z,16.93
2018-05-09T12:09:20.718Z,14.17
2018-05-09T12:11:49.696Z,16.60
2018-05-09T12:14:19.200Z,17.43
2018-05-09T12:16:48.227Z,14.03
2018-05-09T12:19:16.415Z,13.33
2018-05-09T12:21:44.600Z,17.50
2018-05-09T12:24:12.825Z,15.00
2018-05-09T12:26:41.878Z,10.63
2018-05-09T12:29:10.836Z,16.97
2018-05-09T12:31:39.056Z,10.10
2018-05-09T12:34:07.255Z,14.30
2018-05-09T12:36:36.363Z,12.03
2018-05-09T12:39:04.631Z,16.47
2018-05-09T12:41:33.607Z,11.50
2018-05-09T12:44:01.833Z,10.90
2018-05-09T12:46:30.162Z,14.17
2018-05-09T12:49:00.059Z,15.93
2018-05-09T12:51:28.255Z,15.13
2018-05-09T12:53:57.239Z,12.47
2018-05-09T12:56:25.426Z,17.63
2018-05-09T12:58:53.670Z,12.17
2018-05-09T13:01:22.669Z,19.07
2018-05-09T13:03:55.761Z,14.83
2018-05-09T13:06:24.182Z,15.97
2018-05-09T13:08:52.430Z,18.67
2018-05-09T13:11:21.447Z,27.03
2018-05-09T13:13:49.742Z,18.90
2018-05-09T13:16:18.325Z,16.47
2018-05-09T13:18:46.536Z,18.23
2018-05-09T13:21:14.773Z,21.43
2018-05-09T13:23:42.955Z,14.77
2018-05-09T13:26:11.160Z,16.53
2018-05-09T13:28:40.144Z,18.93
2018-05-09T13:31:09.184Z,17.67
2018-05-09T13:33:37.442Z,19.03
2018-05-09T13:36:05.666Z,19.00
2018-05-09T13:38:33.924Z,17.77
2018-05-09T13:41:02.160Z,19.23
2018-05-09T13:43:30.355Z,19.27
2018-05-09T13:45:58.631Z,18.60
2018-05-09T13:48:26.761Z,22.33
2018-05-09T13:50:55.863Z,18.40
2018-05-09T13:53:24.829Z,17.60
2018-05-09T13:55:53.065Z,16.63
2018-05-09T13:58:21.260Z,19.60
2018-05-09T14:00:49.516Z,19.03
2018-05-09T14:03:17.713Z,19.27
2018-05-09T14:05:45.928Z,15.53
2018-05-09T14:08:14.966Z,16.40
2018-05-09T14:10:43.189Z,18.60
2018-05-09T14:13:12.132Z,15.70
2018-05-09T14:15:40.425Z,13.60
2018-05-09T14:18:08.583Z,18.90
2018-05-09T14:20:36.811Z,16.67
2018-05-09T14:23:05.137Z,16.80
2018-05-09T14:25:33.521Z,13.03
2018-05-09T14:28:01.823Z,14.53
2018-05-09T14:30:30.013Z,15.43
2018-05-09T14:32:58.244Z,15.50
2018-05-09T14:35:26.437Z,13.23
2018-05-09T14:37:55.420Z,13.60
2018-05-09T14:40:23.603Z,12.73
2018-05-09T14:42:52.569Z,15.90
2018-05-09T14:45:20.756Z,12.90
2018-05-09T14:47:48.975Z,15.93
2018-05-09T14:50:17.773Z,15.37
2018-05-09T14:52:45.987Z,14.40
2018-05-09T14:55:14.186Z,12.50
2018-05-09T14:57:43.156Z,12.60
2018-05-09T15:00:12.196Z,9.47
2018-05-09T15:02:41.333Z,12.77
2018-05-09T15:05:09.618Z,12.50
2018-05-09T15:07:37.842Z,18.07
2018-05-09T15:10:06.777Z,14.93
2018-05-09T15:12:35.004Z,11.50
2018-05-09T15:15:03.208Z,14.60
2018-05-09T15:17:31.460Z,27.37
2018-05-09T15:19:59.676Z,10.53
2018-05-09T15:22:27.967Z,11.20
2018-05-09T15:24:56.931Z,15.97
2018-05-09T15:27:25.150Z,12.73
2018-05-09T15:29:53.360Z,12.87
2018-05-09T15:32:21.590Z,11.00
2018-05-09T15:34:50.563Z,17.10
2018-05-09T15:37:18.760Z,13.27
2018-05-09T15:39:46.997Z,9.13
2018-05-09T15:42:15.223Z,12.57
2018-05-09T15:44:43.626Z,12.17
2018-05-09T15:47:18.366Z,12.40
2018-05-09T15:49:49.647Z,11.77
2018-05-09T15:52:19.097Z,11.13
2018-05-09T15:54:47.629Z,12.60
2018-05-09T15:57:16.668Z,11.10
2018-05-09T15:59:45.146Z,13.57
2018-05-09T16:02:13.314Z,11.60
2018-05-09T16:04:41.671Z,10.37
2018-05-09T16:07:10.028Z,12.70
2018-05-09T16:09:40.250Z,10.97
2018-05-09T16:12:09.405Z,10.03
2018-05-09T16:14:37.672Z,10.10
2018-05-09T16:17:05.988Z,14.97
2018-05-09T16:19:35.312Z,9.50
2018-05-09T16:22:03.546Z,9.40
2018-05-09T16:24:32.547Z,11.07
2018-05-09T16:27:01.508Z,11.63
2018-05-09T16:29:29.859Z,11.87
2018-05-09T16:31:58.076Z,10.30
2018-05-09T16:34:26.280Z,9.43
2018-05-09T16:36:55.102Z,8.77
2018-05-09T16:39:23.430Z,10.63
2018-05-09T16:41:52.600Z,9.97
2018-05-09T16:44:20.885Z,9.73
2018-05-09T16:46:49.098Z,13.10
2018-05-09T16:49:17.321Z,11.67
2018-05-09T16:51:46.177Z,10.47
2018-05-09T17:00:58.956Z,11.70
2018-05-09T17:03:27.261Z,16.87
2018-05-09T17:05:56.408Z,11.57
2018-05-09T17:08:24.629Z,13.27
2018-05-09T17:10:52.856Z,13.40
2018-05-09T17:13:21.158Z,14.60
2018-05-09T17:15:49.453Z,12.93
2018-05-09T17:18:18.583Z,18.50
2018-05-09T17:20:47.688Z,13.87
2018-05-09T17:23:16.083Z,12.83
2018-05-09T17:25:44.331Z,14.80
2018-05-09T17:28:13.203Z,14.90
2018-05-09T17:30:41.700Z,12.97
2018-05-09T17:33:13.954Z,13.50
2018-05-09T17:35:43.033Z,11.07
2018-05-09T17:38:12.470Z,15.50
2018-05-09T17:40:47.822Z,14.50
2018-05-09T17:43:17.161Z,14.83
2018-05-09T17:45:46.217Z,11.83
2018-05-09T17:48:15.450Z,12.47
2018-05-09T17:50:48.647Z,14.43
2018-05-09T17:53:21.643Z,12.97
2018-05-09T17:55:50.210Z,17.33
2018-05-09T17:58:19.518Z,15.03
2018-05-09T18:00:48.022Z,13.47
2018-05-09T18:03:21.721Z,13.30
2018-05-09T18:05:53.676Z,11.27
2018-05-09T18:08:27.870Z,16.83
2018-05-09T18:10:56.986Z,13.50
2018-05-09T18:13:26.195Z,13.60
2018-05-09T18:16:02.152Z,12.10
2018-05-09T18:18:31.597Z,12.27
2018-05-09T18:21:00.569Z,12.87
2018-05-09T18:23:28.789Z,13.20
2018-05-09T18:25:57.045Z,15.10
2018-05-09T18:28:26.436Z,15.33
2018-05-09T18:30:56.525Z,17.43
2018-05-09T18:33:24.920Z,14.60
2018-05-09T18:35:53.383Z,17.50
2018-05-09T18:38:22.440Z,13.23
2018-05-09T18:40:57.345Z,16.80
2018-05-09T18:43:28.325Z,16.90
2018-05-09T18:45:57.688Z,17.90
2018-05-09T18:48:27.017Z,16.20
2018-05-09T18:50:56.970Z,14.67
2018-05-09T18:53:25.554Z,19.23
2018-05-09T18:55:54.168Z,18.30
2018-05-09T18:58:23.144Z,15.57
2018-05-09T19:00:51.458Z,19.80
2018-05-09T19:03:20.464Z,17.10
2018-05-09T19:05:49.468Z,17.67
2018-05-09T19:08:17.737Z,24.73
2018-05-09T19:10:46.148Z,19.50
2018-05-09T19:13:14.504Z,17.90
2018-05-09T19:15:43.751Z,20.30
2018-05-09T19:18:11.948Z,18.83
2018-05-09T19:20:40.408Z,19.40
2018-05-09T19:23:08.607Z,20.73
2018-05-09T19:25:37.679Z,19.63
2018-05-09T19:28:06.642Z,20.70
2018-05-09T19:30:35.378Z,23.53
2018-05-09T19:33:04.525Z,19.50
2018-05-09T19:35:32.859Z,19.37
2018-05-09T19:38:01.187Z,22.13
2018-05-09T19:40:29.476Z,22.43
2018-05-09T19:42:58.462Z,22.67
2018-05-09T19:45:27.446Z,23.97
2018-05-09T19:47:55.778Z,22.37
2018-05-09T19:50:24.076Z,25.13
2018-05-09T19:52:52.558Z,23.03
2018-05-09T19:55:20.815Z,29.00
2018-05-09T19:57:49.010Z,23.23
2018-05-09T20:00:17.494Z,24.33
2018-05-09T20:02:45.821Z,24.00
2018-05-09T20:05:14.889Z,22.57
2018-05-09T20:07:46.126Z,22.10
2018-05-09T20:10:14.315Z,24.87
2018-05-09T20:12:43.339Z,21.50
2018-05-09T20:15:11.661Z,23.93
2018-05-09T20:17:39.884Z,20.60
2018-05-09T20:20:08.273Z,20.70
2018-05-09T20:22:36.549Z,20.03
2018-05-09T20:25:04.735Z,19.27
2018-05-09T20:27:33.679Z,20.30
2018-05-09T20:30:02.779Z,21.23
2018-05-09T20:32:39.713Z,19.10
2018-05-09T20:35:07.991Z,17.77
2018-05-09T20:37:36.268Z,20.60
2018-05-09T20:40:04.695Z,17.60
2018-05-09T20:42:33.704Z,19.00
2018-05-09T20:45:01.932Z,21.30
2018-05-09T20:47:31.019Z,19.27
2018-05-09T20:49:59.267Z,17.87
2018-05-09T20:52:27.515Z,18.63
2018-05-09T20:54:55.859Z,17.33
2018-05-09T20:57:24.828Z,17.83
2018-05-09T20:59:53.069Z,17.73
2018-05-09T21:02:21.515Z,18.70
2018-05-09T21:04:50.485Z,19.00
2018-05-09T21:07:19.483Z,18.13
2018-05-09T21:09:48.504Z,19.70
2018-05-09T21:12:16.803Z,19.93
2018-05-09T21:14:45.118Z,21.07
2018-05-09T21:17:13.392Z,21.60
2018-05-09T21:19:41.703Z,20.70
2018-05-09T21:22:10.005Z,20.40
2018-05-09T21:24:38.213Z,23.33
2018-05-09T21:27:08.256Z,20.47
2018-05-09T21:29:37.215Z,22.90
2018-05-09T21:32:05.553Z,24.43
2018-05-09T21:34:33.741Z,22.73
2018-05-09T21:37:02.019Z,22.20
2018-05-09T21:39:30.505Z,21.47
2018-05-09T21:41:58.911Z,23.20
2018-05-09T21:44:27.135Z,22.60
2018-05-09T21:46:55.405Z,21.83
2018-05-09T21:49:23.640Z,24.27
2018-05-09T21:51:52.588Z,20.93
2018-05-09T21:54:20.787Z,22.20
2018-05-09T21:56:49.085Z,22.00
2018-05-09T21:59:18.180Z,22.10
2018-05-09T22:01:46.491Z,23.80
2018-05-09T22:04:14.768Z,22.70
2018-05-09T22:06:43.014Z,23.30
2018-05-09T22:09:12.054Z,24.27
2018-05-09T22:11:40.285Z,25.00
2018-05-09T22:14:08.647Z,26.37
2018-05-09T22:16:37.637Z,19.47
2018-05-09T22:19:06.683Z,21.00
2018-05-09T22:21:34.883Z,21.97
2018-05-09T22:24:03.122Z,17.37
2018-05-09T22:26:31.325Z,17.60
2018-05-09T22:28:59.510Z,14.90
2018-05-09T22:31:28.293Z,17.63
2018-05-09T22:33:57.365Z,17.03
2018-05-09T22:36:25.568Z,19.33
2018-05-09T22:38:54.591Z,17.87
2018-05-09T22:41:22.834Z,20.30
2018-05-09T22:43:51.050Z,20.23
2018-05-09T22:46:19.244Z,22.20
2018-05-09T22:48:47.480Z,22.73
2018-05-09T22:51:15.707Z,24.80
2018-05-09T22:53:44.686Z,24.90
2018-05-09T22:56:12.912Z,23.30
2018-05-09T22:58:41.958Z,15.67
2018-05-09T23:01:10.335Z,19.17
2018-05-09T23:03:38.534Z,16.80
2018-05-09T23:06:06.782Z,12.53
2018-05-09T23:08:35.179Z,20.47
2018-05-09T23:11:03.459Z,15.23
2018-05-09T23:13:31.687Z,15.93
2018-05-09T23:16:00.765Z,16.93
2018-05-09T23:21:02.808Z,15.67
2018-05-09T23:23:45.145Z,19.23
2018-05-09T23:26:28.417Z,16.47
2018-05-09T23:29:00.112Z,16.40
2018-05-09T23:31:32.030Z,19.37
2018-05-09T23:34:01.986Z,20.53
2018-05-09T23:36:37.434Z,16.47
2018-05-09T23:39:18.676Z,17.23
2018-05-09T23:41:47.775Z,19.93
2018-05-09T23:44:16.254Z,20.30
2018-05-09T23:46:44.592Z,16.57
2018-05-09T23:49:12.825Z,17.33
2018-05-09T23:51:41.462Z,17.20
2018-05-09T23:54:09.904Z,17.87
2018-05-09T23:56:38.198Z,24.47
2018-05-09T23:59:06.532Z,26.77
